Time;durP1;ratioP1;P1;durP2;ratioP2;P2;SDS_P1;SDS_P2;PMS_P1;PMS_P2;Temp;Humidity;BMP_temperature;BMP_pressure;BME280_temperature;BME280_humidity;BME280_pressure;Samples;Min_cycle;Max_cycle;Signal;HPM_P1;HPM_P2
2023/03/26 00:00:04;;;;;;;6.75;2.00;;;;;;;;;;5014633;28;20038;-59
2023/03/26 00:02:38;;;;;;;6.10;2.30;;;;;;;;;;5014867;28;20410;-61
2023/03/26 00:05:04;;;;;;;6.72;2.30;;;;;;;;;;5030487;28;20124;-64
2023/03/26 00:07:29;;;;;;;6.20;2.67;;;;;;;;;;5013203;28;20402;-62
2023/03/26 00:09:58;;;;;;;5.13;2.70;;;;;;;;;;5014578;28;20045;-58
2023/03/26 00:12:23;;;;;;;4.53;2.25;;;;;;;;;;5016355;28;20289;-58
2023/03/26 00:14:50;;;;;;;9.93;2.35;;;;;;;;;;5016045;28;20029;-60
2023/03/26 00:17:15;;;;;;;5.38;2.60;;;;;;;;;;5016323;28;20060;-59
2023/03/26 00:19:41;;;;;;;6.45;2.42;;;;;;;;;;5013033;28;20132;-61
2023/03/26 00:22:09;;;;;;;4.30;1.80;;;;;;;;;;5015758;28;20056;-62
2023/03/26 00:24:36;;;;;;;6.07;1.90;;;;;;;;;;5017106;28;20139;-60
2023/03/26 00:27:01;;;;;;;3.53;1.90;;;;;;;;;;5015161;28;20057;-59
2023/03/26 00:29:27;;;;;;;10.10;2.35;;;;;;;;;;5014191;28;20053;-60
2023/03/26 00:31:52;;;;;;;4.32;2.13;;;;;;;;;;5013344;28;20030;-62
2023/03/26 00:34:17;;;;;;;7.22;2.30;;;;;;;;;;5018210;28;20028;-58
2023/03/26 00:36:45;;;;;;;6.38;2.00;;;;;;;;;;5012889;28;20501;-60
2023/03/26 00:39:11;;;;;;;6.93;2.22;;;;;;;;;;5024157;28;20262;-59
2023/03/26 00:41:41;;;;;;;6.68;2.50;;;;;;;;;;5027886;28;20030;-61
2023/03/26 00:44:07;;;;;;;7.25;2.55;;;;;;;;;;5016002;28;20040;-60
2023/03/26 00:46:32;;;;;;;7.07;2.58;;;;;;;;;;5013837;28;20033;-59
2023/03/26 00:48:58;;;;;;;6.40;2.70;;;;;;;;;;5014422;28;20036;-61
2023/03/26 00:51:24;;;;;;;4.30;1.95;;;;;;;;;;5030642;28;20549;-58
2023/03/26 00:53:49;;;;;;;6.18;2.00;;;;;;;;;;5012849;28;20067;-58
2023/03/26 00:56:15;;;;;;;6.38;2.25;;;;;;;;;;5017403;28;20388;-61
2023/03/26 00:58:40;;;;;;;3.58;2.15;;;;;;;;;;5018885;28;20501;-60
2023/03/26 01:01:08;;;;;;;4.70;2.35;;;;;;;;;;5015723;28;20025;-61
2023/03/26 01:03:34;;;;;;;4.60;2.60;;;;;;;;;;5018789;28;20044;-63
2023/03/26 01:06:10;;;;;;;4.70;2.50;;;;;;;;;;5019763;28;20042;-58
2023/03/26 01:08:43;;;;;;;5.18;2.33;;;;;;;;;;5030187;28;20128;-61
2023/03/26 01:11:23;;;;;;;4.45;2.10;;;;;;;;;;5013383;28;20467;-61
2023/03/26 01:13:52;;;;;;;6.32;2.58;;;;;;;;;;5017941;28;20123;-59
2023/03/26 01:16:33;;;;;;;4.05;2.17;;;;;;;;;;5014981;28;20047;-60
2023/03/26 01:18:59;;;;;;;2.33;1.75;;;;;;;;;;5013814;28;20033;-60
2023/03/26 01:21:28;;;;;;;4.43;1.70;;;;;;;;;;5027183;28;20136;-59
2023/03/26 01:23:58;;;;;;;5.10;2.00;;;;;;;;;;5029607;28;20037;-62
2023/03/26 01:26:36;;;;;;;5.18;2.00;;;;;;;;;;5019332;28;20037;-60
2023/03/26 01:29:02;;;;;;;4.22;1.90;;;;;;;;;;5013845;28;20061;-60
2023/03/26 01:31:38;;;;;;;5.85;1.95;;;;;;;;;;5010859;28;20686;-61
2023/03/26 01:34:15;;;;;;;5.18;1.88;;;;;;;;;;5020498;28;20561;-59
2023/03/26 01:36:47;;;;;;;5.90;2.05;;;;;;;;;;5016674;28;20549;-60
2023/03/26 01:39:17;;;;;;;2.33;1.95;;;;;;;;;;5018884;28;20040;-62
2023/03/26 01:42:01;;;;;;;6.28;2.22;;;;;;;;;;5015402;28;20030;-59
2023/03/26 01:44:36;;;;;;;5.82;2.47;;;;;;;;;;5026894;28;21340;-60
2023/03/26 01:47:02;;;;;;;4.85;2.60;;;;;;;;;;5013510;28;20022;-58
2023/03/26 01:49:28;;;;;;;9.73;3.42;;;;;;;;;;5014314;28;20040;-61
2023/03/26 01:51:54;;;;;;;9.35;3.45;;;;;;;;;;5019328;28;20124;-59
2023/03/26 01:54:21;;;;;;;10.23;3.50;;;;;;;;;;5013708;28;20037;-61
2023/03/26 01:57:09;;;;;;;7.20;3.10;;;;;;;;;;5015197;28;20710;-58
2023/03/26 01:59:53;;;;;;;11.48;3.55;;;;;;;;;;5029683;28;20030;-60
2023/03/26 02:02:18;;;;;;;9.25;3.20;;;;;;;;;;5024056;28;20486;-59
2023/03/26 02:04:53;;;;;;;12.02;3.50;;;;;;;;;;5015556;28;20057;-60
2023/03/26 02:07:28;;;;;;;13.40;3.05;;;;;;;;;;5013136;28;20042;-60
2023/03/26 02:10:16;;;;;;;7.30;3.25;;;;;;;;;;5015468;28;20029;-61
2023/03/26 02:12:43;;;;;;;8.48;3.17;;;;;;;;;;5020957;28;20445;-58
2023/03/26 02:15:10;;;;;;;8.70;3.30;;;;;;;;;;5025274;28;20041;-61
2023/03/26 02:17:38;;;;;;;7.63;3.00;;;;;;;;;;5015486;28;20080;-58
2023/03/26 02:20:05;;;;;;;9.18;3.13;;;;;;;;;;5012666;28;20045;-60
2023/03/26 02:22:30;;;;;;;7.67;3.10;;;;;;;;;;5014595;28;20029;-60
2023/03/26 02:24:57;;;;;;;9.18;3.42;;;;;;;;;;5025783;28;20041;-59
2023/03/26 02:27:22;;;;;;;8.13;3.40;;;;;;;;;;5018824;28;20048;-61
2023/03/26 02:29:49;;;;;;;10.43;3.05;;;;;;;;;;5001482;28;20505;-60
2023/03/26 02:32:18;;;;;;;10.18;3.28;;;;;;;;;;5024195;28;20057;-60
2023/03/26 02:34:43;;;;;;;11.15;3.17;;;;;;;;;;5029412;28;20036;-58
2023/03/26 02:37:08;;;;;;;7.55;3.58;;;;;;;;;;5023520;28;20038;-58
2023/03/26 02:39:35;;;;;;;6.45;3.08;;;;;;;;;;5015083;28;20083;-62
2023/03/26 02:42:08;;;;;;;9.63;3.15;;;;;;;;;;5022030;28;20037;-60
2023/03/26 02:44:39;;;;;;;8.27;2.97;;;;;;;;;;5025108;28;20113;-60
2023/03/26 02:47:07;;;;;;;8.45;3.13;;;;;;;;;;5022094;28;20105;-60
2023/03/26 02:49:50;;;;;;;9.63;3.10;;;;;;;;;;5021368;28;20049;-57
2023/03/26 02:52:24;;;;;;;7.63;3.03;;;;;;;;;;5009880;28;20032;-60
2023/03/26 02:54:52;;;;;;;6.47;2.92;;;;;;;;;;5018981;28;20172;-61
2023/03/26 02:57:27;;;;;;;8.25;2.72;;;;;;;;;;5017427;28;20037;-58
2023/03/26 03:00:12;;;;;;;5.85;2.80;;;;;;;;;;5029300;28;20386;-60
2023/03/26 03:02:37;;;;;;;6.45;3.25;;;;;;;;;;5018840;28;20046;-63
2023/03/26 03:05:27;;;;;;;6.90;2.78;;;;;;;;;;5019344;28;20120;-58
2023/03/26 03:08:17;;;;;;;7.88;2.80;;;;;;;;;;5011617;28;20041;-61
2023/03/26 03:11:20;;;;;;;8.63;2.72;;;;;;;;;;5020339;28;20022;-63
2023/03/26 03:13:47;;;;;;;9.48;3.22;;;;;;;;;;5019422;28;20369;-58
2023/03/26 03:16:19;;;;;;;10.50;2.78;;;;;;;;;;5016702;28;20336;-60
2023/03/26 03:18:46;;;;;;;11.02;2.97;;;;;;;;;;5018104;28;20025;-59
2023/03/26 03:21:11;;;;;;;7.15;3.17;;;;;;;;;;5031096;28;20179;-59
2023/03/26 03:23:37;;;;;;;7.75;2.88;;;;;;;;;;5024414;28;20344;-59
2023/03/26 03:26:12;;;;;;;7.63;2.83;;;;;;;;;;5017426;28;20036;-58
2023/03/26 03:28:38;;;;;;;11.43;3.72;;;;;;;;;;5019098;28;20517;-64
2023/03/26 03:31:04;;;;;;;7.82;3.60;;;;;;;;;;5034195;28;20471;-62
2023/03/26 03:33:31;;;;;;;7.40;3.13;;;;;;;;;;5028768;28;20075;-60
2023/03/26 03:35:58;;;;;;;10.65;3.85;;;;;;;;;;5017122;28;20042;-59
2023/03/26 03:38:24;;;;;;;8.40;3.13;;;;;;;;;;5009831;28;20037;-61
2023/03/26 03:40:53;;;;;;;7.43;3.30;;;;;;;;;;5023623;28;20041;-58
2023/03/26 03:43:18;;;;;;;7.60;3.00;;;;;;;;;;5015597;28;20095;-60
2023/03/26 03:46:04;;;;;;;10.15;3.22;;;;;;;;;;5014685;28;20548;-59
2023/03/26 03:48:48;;;;;;;7.65;2.85;;;;;;;;;;5017747;28;20025;-60
2023/03/26 03:51:15;;;;;;;10.70;3.20;;;;;;;;;;5016853;28;20038;-62
2023/03/26 03:53:54;;;;;;;8.18;3.10;;;;;;;;;;5016006;28;20091;-58
2023/03/26 03:56:47;;;;;;;5.07;3.25;;;;;;;;;;4998755;28;20048;-59
2023/03/26 03:59:12;;;;;;;7.55;2.80;;;;;;;;;;5015315;28;20053;-61
2023/03/26 04:01:38;;;;;;;11.40;3.25;;;;;;;;;;5014497;28;20407;-60
2023/03/26 04:04:07;;;;;;;9.88;3.17;;;;;;;;;;5016477;28;20531;-61
2023/03/26 04:06:51;;;;;;;12.02;3.58;;;;;;;;;;5014954;28;20141;-58
2023/03/26 04:09:17;;;;;;;10.10;3.38;;;;;;;;;;5016777;28;20507;-59
2023/03/26 04:11:46;;;;;;;8.82;3.38;;;;;;;;;;5017150;28;20021;-61
2023/03/26 04:14:27;;;;;;;11.35;3.50;;;;;;;;;;5023056;28;20029;-62
2023/03/26 04:16:58;;;;;;;14.85;3.50;;;;;;;;;;5021321;28;20077;-59
2023/03/26 04:19:26;;;;;;;7.50;3.30;;;;;;;;;;5019837;28;20037;-58
2023/03/26 04:21:51;;;;;;;9.50;4.65;;;;;;;;;;5030610;28;20041;-58
2023/03/26 04:24:21;;;;;;;12.52;4.43;;;;;;;;;;5014399;28;20120;-60
2023/03/26 04:27:30;;;;;;;11.07;3.72;;;;;;;;;;5000457;28;20041;-60
2023/03/26 04:30:05;;;;;;;10.93;3.50;;;;;;;;;;5013666;28;20038;-61
2023/03/26 04:32:34;;;;;;;7.63;3.28;;;;;;;;;;5015405;28;20485;-58
2023/03/26 04:35:04;;;;;;;7.22;3.90;;;;;;;;;;5021029;28;20029;-60
2023/03/26 04:37:33;;;;;;;7.10;3.42;;;;;;;;;;5014929;28;20029;-60
2023/03/26 04:40:14;;;;;;;10.75;3.47;;;;;;;;;;5014918;28;20037;-60
2023/03/26 04:42:53;;;;;;;11.65;3.60;;;;;;;;;;5031479;28;20893;-58
2023/03/26 04:45:41;;;;;;;8.20;3.40;;;;;;;;;;5016185;28;20044;-57
2023/03/26 04:48:07;;;;;;;6.55;3.20;;;;;;;;;;5036860;28;20029;-59
2023/03/26 04:50:32;;;;;;;7.13;3.33;;;;;;;;;;5018088;28;20490;-58
2023/03/26 04:52:58;;;;;;;9.85;3.50;;;;;;;;;;5021055;28;20061;-62
2023/03/26 04:56:01;;;;;;;8.93;3.65;;;;;;;;;;5015425;28;20438;-59
2023/03/26 04:59:00;;;;;;;9.20;3.42;;;;;;;;;;4980461;28;20053;-59
2023/03/26 05:01:29;;;;;;;8.35;4.07;;;;;;;;;;5028541;28;20120;-59
2023/03/26 05:03:57;;;;;;;10.88;4.30;;;;;;;;;;5027095;28;20043;-57
2023/03/26 05:06:27;;;;;;;10.63;4.60;;;;;;;;;;5012810;28;20113;-60
2023/03/26 05:08:53;;;;;;;12.00;4.50;;;;;;;;;;5018671;28;20406;-59
2023/03/26 05:11:39;;;;;;;11.80;4.97;;;;;;;;;;5014045;28;20485;-60
2023/03/26 05:14:04;;;;;;;16.80;5.70;;;;;;;;;;5017509;28;20034;-61
2023/03/26 05:16:30;;;;;;;10.13;5.32;;;;;;;;;;5002784;28;20360;-60
2023/03/26 05:19:02;;;;;;;12.68;4.95;;;;;;;;;;5027655;28;20033;-61
2023/03/26 05:21:31;;;;;;;17.63;5.68;;;;;;;;;;5018706;28;20044;-61
2023/03/26 05:23:56;;;;;;;9.57;4.78;;;;;;;;;;5017019;28;20053;-59
2023/03/26 05:26:22;;;;;;;13.20;5.18;;;;;;;;;;5012427;28;20120;-59
2023/03/26 05:28:47;;;;;;;16.10;4.47;;;;;;;;;;5016062;28;20064;-60
2023/03/26 05:31:20;;;;;;;15.25;4.40;;;;;;;;;;5002173;28;20087;-61
2023/03/26 05:33:47;;;;;;;;;;;;;;;;;;5026468;28;20049;-59
2023/03/26 05:36:14;;;;;;;10.23;3.57;;;;;;;;;;5013378;28;19960;-59
2023/03/26 05:38:48;;;;;;;9.10;3.70;;;;;;;;;;5027225;28;20283;-61
2023/03/26 05:41:19;;;;;;;16.42;3.38;;;;;;;;;;5017904;28;20299;-59
2023/03/26 05:43:46;;;;;;;10.52;3.38;;;;;;;;;;5013321;28;20029;-58
2023/03/26 05:46:16;;;;;;;8.02;3.13;;;;;;;;;;5018962;28;20139;-60
2023/03/26 05:48:42;;;;;;;10.18;3.58;;;;;;;;;;5012878;28;20482;-61
2023/03/26 05:51:08;;;;;;;8.00;3.42;;;;;;;;;;5013477;28;20045;-58
2023/03/26 05:53:35;;;;;;;15.82;3.60;;;;;;;;;;5015020;28;20073;-60
2023/03/26 05:56:23;;;;;;;11.32;3.95;;;;;;;;;;4997087;28;20045;-60
2023/03/26 05:59:08;;;;;;;11.45;3.83;;;;;;;;;;5010509;28;20833;-58
2023/03/26 06:01:53;;;;;;;10.32;3.50;;;;;;;;;;5017151;28;20045;-59
2023/03/26 06:04:41;;;;;;;10.13;3.60;;;;;;;;;;5010684;28;20040;-61
2023/03/26 06:07:32;;;;;;;11.50;3.90;;;;;;;;;;4991884;28;20754;-60
2023/03/26 06:10:12;;;;;;;8.65;3.60;;;;;;;;;;5022853;28;20042;-58
2023/03/26 06:12:37;;;;;;;5.90;3.33;;;;;;;;;;5013641;28;20453;-58
2023/03/26 06:15:03;;;;;;;11.00;3.90;;;;;;;;;;5026231;28;20391;-59
2023/03/26 06:17:57;;;;;;;13.35;3.60;;;;;;;;;;5027997;28;20315;-59
2023/03/26 06:20:34;;;;;;;12.73;3.80;;;;;;;;;;5014819;28;20054;-59
2023/03/26 06:23:06;;;;;;;16.23;4.20;;;;;;;;;;5028189;28;20087;-58
2023/03/26 06:25:45;;;;;;;15.48;3.90;;;;;;;;;;5013973;28;20025;-60
2023/03/26 06:28:28;;;;;;;5.82;3.10;;;;;;;;;;5015838;28;20115;-60
2023/03/26 06:31:12;;;;;;;12.95;3.33;;;;;;;;;;5014688;28;20980;-61
2023/03/26 06:33:49;;;;;;;14.60;4.30;;;;;;;;;;5016311;28;20033;-58
2023/03/26 06:36:14;;;;;;;11.07;3.45;;;;;;;;;;5008763;28;20087;-60
2023/03/26 06:38:40;;;;;;;8.30;3.17;;;;;;;;;;5017068;28;20029;-62
2023/03/26 06:41:06;;;;;;;7.25;2.30;;;;;;;;;;5023323;28;20029;-61
2023/03/26 06:43:32;;;;;;;9.68;2.35;;;;;;;;;;5010046;28;20044;-62
2023/03/26 06:46:32;;;;;;;7.22;2.40;;;;;;;;;;5013091;28;20095;-59
2023/03/26 06:49:16;;;;;;;7.22;2.63;;;;;;;;;;5013673;28;20129;-62
2023/03/26 06:52:20;;;;;;;6.05;2.47;;;;;;;;;;4996609;28;20089;-59
2023/03/26 06:54:57;;;;;;;;;;;;;;;;;;4977780;28;20026;-58
2023/03/26 06:57:52;;;;;;;8.00;2.88;;;;;;;;;;4958914;28;19922;-63
2023/03/26 07:00:51;;;;;;;7.68;2.58;;;;;;;;;;5027276;28;20040;-61
2023/03/26 07:03:35;;;;;;;8.65;2.30;;;;;;;;;;5014492;28;20446;-58
2023/03/26 07:06:19;;;;;;;8.32;2.50;;;;;;;;;;5010196;28;20459;-60
2023/03/26 07:09:03;;;;;;;6.63;2.25;;;;;;;;;;5013906;28;20463;-61
2023/03/26 07:11:47;;;;;;;12.55;2.30;;;;;;;;;;5019240;28;20144;-62
2023/03/26 07:14:18;;;;;;;8.25;2.25;;;;;;;;;;5012890;28;20256;-60
2023/03/26 07:17:13;;;;;;;8.55;2.33;;;;;;;;;;4948498;28;20051;-61
2023/03/26 07:19:53;;;;;;;10.63;2.35;;;;;;;;;;5013633;28;20545;-61
2023/03/26 07:22:22;;;;;;;7.72;2.50;;;;;;;;;;5016125;28;20418;-62
2023/03/26 07:25:04;;;;;;;6.45;2.50;;;;;;;;;;5012816;28;20041;-61
2023/03/26 07:28:14;;;;;;;11.40;2.90;;;;;;;;;;5003128;28;20402;-60
2023/03/26 07:30:55;;;;;;;9.77;2.17;;;;;;;;;;5017297;28;20038;-62
2023/03/26 07:33:57;;;;;;;6.82;1.90;;;;;;;;;;5018280;28;20057;-61
2023/03/26 07:36:36;;;;;;;7.40;2.00;;;;;;;;;;5013392;28;20091;-61
2023/03/26 07:39:46;;;;;;;10.13;2.33;;;;;;;;;;5015342;28;20045;-59
2023/03/26 07:42:40;;;;;;;8.88;2.42;;;;;;;;;;5013841;28;20045;-59
2023/03/26 07:45:31;;;;;;;15.32;2.70;;;;;;;;;;5013832;28;20171;-59
2023/03/26 07:48:24;;;;;;;7.47;2.28;;;;;;;;;;5014511;28;20073;-60
2023/03/26 07:51:11;;;;;;;10.70;2.90;;;;;;;;;;5030102;28;20037;-59
2023/03/26 07:54:07;;;;;;;9.52;2.63;;;;;;;;;;5003014;28;20506;-60
2023/03/26 07:56:41;;;;;;;8.18;2.60;;;;;;;;;;5013384;28;20038;-60
2023/03/26 07:59:22;;;;;;;10.88;2.28;;;;;;;;;;5028976;28;20041;-60
2023/03/26 08:02:31;;;;;;;8.88;2.42;;;;;;;;;;5014687;28;20513;-59
2023/03/26 08:05:25;;;;;;;7.35;2.25;;;;;;;;;;5010490;28;20033;-62
2023/03/26 08:08:16;;;;;;;8.18;2.05;;;;;;;;;;5013951;28;20087;-60
2023/03/26 08:11:06;;;;;;;6.75;2.03;;;;;;;;;;5016138;28;20458;-60
2023/03/26 08:13:37;;;;;;;8.88;2.10;;;;;;;;;;5035849;28;20030;-60
2023/03/26 08:16:04;;;;;;;5.50;2.00;;;;;;;;;;5020983;28;20373;-60
2023/03/26 08:18:30;;;;;;;6.50;2.17;;;;;;;;;;5019968;28;20465;-59
2023/03/26 08:21:05;;;;;;;7.68;2.40;;;;;;;;;;5017247;28;20510;-60
2023/03/26 08:23:39;;;;;;;11.40;2.53;;;;;;;;;;5015618;28;20028;-61
2023/03/26 08:26:04;;;;;;;5.55;2.28;;;;;;;;;;5029001;28;20444;-58
2023/03/26 08:28:47;;;;;;;10.30;2.40;;;;;;;;;;5018507;28;20033;-59
2023/03/26 08:31:14;;;;;;;7.65;2.60;;;;;;;;;;5017667;28;20040;-61
2023/03/26 08:33:39;;;;;;;9.32;2.58;;;;;;;;;;5014345;28;20030;-60
2023/03/26 08:36:05;;;;;;;8.85;2.40;;;;;;;;;;4998130;28;20043;-60
2023/03/26 08:38:30;;;;;;;7.20;2.67;;;;;;;;;;5016792;28;20041;-59
2023/03/26 08:41:05;;;;;;;10.00;3.70;;;;;;;;;;5011690;28;20044;-59
2023/03/26 08:43:34;;;;;;;8.55;3.25;;;;;;;;;;5013346;28;20440;-59
2023/03/26 08:46:26;;;;;;;11.45;2.72;;;;;;;;;;5015467;28;20602;-59
2023/03/26 08:48:51;;;;;;;6.90;2.60;;;;;;;;;;5013116;28;20122;-60
2023/03/26 08:51:26;;;;;;;11.68;2.50;;;;;;;;;;5013227;28;20242;-61
2023/03/26 08:53:51;;;;;;;7.78;2.50;;;;;;;;;;5029677;28;20474;-59
2023/03/26 08:56:26;;;;;;;11.30;2.88;;;;;;;;;;4986793;28;20046;-60
2023/03/26 08:59:15;;;;;;;10.32;2.78;;;;;;;;;;5001714;28;20034;-60
2023/03/26 09:01:44;;;;;;;9.07;2.80;;;;;;;;;;4991175;28;20046;-60
2023/03/26 09:04:28;;;;;;;11.68;3.00;;;;;;;;;;4984636;28;20180;-59
2023/03/26 09:07:12;;;;;;;6.03;2.72;;;;;;;;;;4994933;28;20040;-62
2023/03/26 09:09:55;;;;;;;7.18;2.92;;;;;;;;;;5005575;28;20623;-59
2023/03/26 09:12:40;;;;;;;7.40;2.63;;;;;;;;;;5000026;28;20038;-59
2023/03/26 09:15:20;;;;;;;9.35;3.15;;;;;;;;;;4994725;28;20109;-61
2023/03/26 09:18:00;;;;;;;12.43;3.88;;;;;;;;;;4992603;28;20030;-59
2023/03/26 09:20:41;;;;;;;8.02;2.45;;;;;;;;;;5008829;28;20376;-60
2023/03/26 09:23:29;;;;;;;8.15;2.20;;;;;;;;;;4993389;28;20030;-61
2023/03/26 09:26:00;;;;;;;7.43;2.45;;;;;;;;;;4980202;28;20046;-59
2023/03/26 09:28:26;;;;;;;15.90;3.50;;;;;;;;;;4993950;28;20446;-60
2023/03/26 09:30:51;;;;;;;13.02;3.47;;;;;;;;;;4993384;28;20029;-61
2023/03/26 09:33:16;;;;;;;10.70;3.22;;;;;;;;;;4994256;28;20040;-60
2023/03/26 09:35:49;;;;;;;11.15;2.75;;;;;;;;;;4993598;28;20026;-61
2023/03/26 09:38:23;;;;;;;9.20;3.15;;;;;;;;;;4984788;28;20764;-59
2023/03/26 09:40:57;;;;;;;8.73;3.17;;;;;;;;;;4994196;28;21342;-59
2023/03/26 09:43:41;;;;;;;11.68;2.33;;;;;;;;;;4996820;28;20117;-58
2023/03/26 09:46:24;;;;;;;8.88;3.15;;;;;;;;;;4993069;28;20573;-62
2023/03/26 09:49:09;;;;;;;12.07;3.22;;;;;;;;;;4997606;28;20029;-62
2023/03/26 09:51:34;;;;;;;7.40;3.08;;;;;;;;;;4990965;28;20516;-61
2023/03/26 09:54:19;;;;;;;13.88;3.28;;;;;;;;;;4995654;28;20034;-57
2023/03/26 09:57:01;;;;;;;7.45;2.67;;;;;;;;;;4983349;28;20077;-60
2023/03/26 09:59:30;;;;;;;6.93;2.70;;;;;;;;;;4991274;28;20042;-61
2023/03/26 10:02:08;;;;;;;10.52;3.15;;;;;;;;;;5007531;28;20045;-58
2023/03/26 10:04:39;;;;;;;6.82;2.28;;;;;;;;;;4995592;28;20056;-59
2023/03/26 10:07:07;;;;;;;6.72;2.42;;;;;;;;;;4994452;28;20097;-59
2023/03/26 10:09:41;;;;;;;8.07;2.17;;;;;;;;;;4998008;28;20470;-60
2023/03/26 10:12:07;;;;;;;4.45;2.20;;;;;;;;;;5009194;28;20104;-58
2023/03/26 10:14:32;;;;;;;4.93;2.20;;;;;;;;;;4994067;28;20399;-58
2023/03/26 10:17:34;;;;;;;3.88;2.00;;;;;;;;;;4991023;28;20030;-58
2023/03/26 10:19:59;;;;;;;7.80;2.50;;;;;;;;;;4937708;28;20106;-61
2023/03/26 10:22:37;;;;;;;10.38;2.35;;;;;;;;;;4980411;28;20046;-59
2023/03/26 10:25:15;;;;;;;5.57;2.13;;;;;;;;;;4991856;28;20097;-57
2023/03/26 10:27:40;;;;;;;6.32;2.53;;;;;;;;;;4996161;28;20034;-58
2023/03/26 10:30:06;;;;;;;7.63;2.13;;;;;;;;;;4993188;28;20029;-58
2023/03/26 10:32:31;;;;;;;6.07;2.10;;;;;;;;;;4991904;28;20080;-59
2023/03/26 10:35:14;;;;;;;7.30;2.22;;;;;;;;;;4998798;28;20034;-59
2023/03/26 10:37:58;;;;;;;6.28;1.98;;;;;;;;;;4994425;28;20034;-60
2023/03/26 10:40:42;;;;;;;5.28;2.20;;;;;;;;;;4990789;28;20042;-59
2023/03/26 10:43:10;;;;;;;5.65;1.90;;;;;;;;;;4991124;28;20045;-60
2023/03/26 10:45:48;;;;;;;4.82;2.05;;;;;;;;;;4995973;28;20079;-59
2023/03/26 10:48:22;;;;;;;8.00;1.98;;;;;;;;;;4997971;28;20033;-60
2023/03/26 10:50:56;;;;;;;4.85;1.75;;;;;;;;;;4997739;28;20096;-58
2023/03/26 10:53:21;;;;;;;5.50;1.80;;;;;;;;;;5003741;28;20037;-61
2023/03/26 10:55:51;;;;;;;4.35;1.80;;;;;;;;;;4992079;28;20046;-58
2023/03/26 10:58:24;;;;;;;5.68;2.00;;;;;;;;;;5005597;28;20030;-58
2023/03/26 11:01:00;;;;;;;4.07;1.75;;;;;;;;;;5000810;28;20041;-58
2023/03/26 11:03:28;;;;;;;4.50;1.77;;;;;;;;;;5000168;28;20026;-60
2023/03/26 11:05:58;;;;;;;3.85;1.45;;;;;;;;;;4995741;28;20034;-62
2023/03/26 11:08:28;;;;;;;5.10;1.80;;;;;;;;;;5001386;28;20072;-60
2023/03/26 11:11:12;;;;;;;4.82;1.50;;;;;;;;;;4994779;28;20030;-61
2023/03/26 11:13:44;;;;;;;3.38;1.60;;;;;;;;;;4996382;28;20061;-60
2023/03/26 11:16:24;;;;;;;2.72;1.48;;;;;;;;;;4994488;28;20506;-60
2023/03/26 11:18:59;;;;;;;5.07;2.08;;;;;;;;;;4998115;28;20046;-61
2023/03/26 11:21:24;;;;;;;4.28;1.88;;;;;;;;;;4993955;28;20217;-60
2023/03/26 11:23:56;;;;;;;2.80;1.60;;;;;;;;;;4996122;28;20116;-61
2023/03/26 11:26:41;;;;;;;1.92;0.95;;;;;;;;;;4997738;28;20030;-59
2023/03/26 11:29:24;;;;;;;9.48;2.55;;;;;;;;;;4997578;28;20136;-61
2023/03/26 11:31:55;;;;;;;5.10;1.98;;;;;;;;;;5010540;28;20803;-61
2023/03/26 11:34:25;;;;;;;3.60;1.63;;;;;;;;;;5002289;28;20034;-59
2023/03/26 11:36:52;;;;;;;1.70;1.20;;;;;;;;;;5000705;28;20092;-60
2023/03/26 11:39:18;;;;;;;;;;;;;;;;;;4997305;28;20065;-60
2023/03/26 11:41:43;;;;;;;3.67;2.07;;;;;;;;;;5000169;28;19964;-60
2023/03/26 11:44:39;;;;;;;3.58;1.60;;;;;;;;;;4996275;28;20542;-59
2023/03/26 11:47:09;;;;;;;3.75;1.50;;;;;;;;;;4999110;28;20034;-59
2023/03/26 11:49:35;;;;;;;3.63;1.65;;;;;;;;;;4992235;28;20049;-62
2023/03/26 11:52:01;;;;;;;1.63;1.10;;;;;;;;;;4995421;28;20018;-60
2023/03/26 11:54:27;;;;;;;4.37;1.30;;;;;;;;;;4993128;28;20058;-62
2023/03/26 11:56:55;;;;;;;3.38;1.50;;;;;;;;;;5008223;28;20130;-60
2023/03/26 11:59:29;;;;;;;2.90;1.40;;;;;;;;;;4992663;28;20045;-60
2023/03/26 12:01:55;;;;;;;2.70;1.30;;;;;;;;;;4986711;28;20498;-59
2023/03/26 12:04:33;;;;;;;2.50;1.20;;;;;;;;;;4991751;28;20042;-60
2023/03/26 12:07:08;;;;;;;1.27;0.88;;;;;;;;;;4986779;28;20041;-58
2023/03/26 12:09:34;;;;;;;2.42;1.30;;;;;;;;;;4985697;28;20034;-61
2023/03/26 12:12:01;;;;;;;4.15;1.30;;;;;;;;;;4988033;28;20113;-60
2023/03/26 12:14:28;;;;;;;3.83;1.70;;;;;;;;;;4991814;28;20049;-64
2023/03/26 12:17:04;;;;;;;9.82;1.85;;;;;;;;;;4991702;28;20096;-57
2023/03/26 12:19:38;;;;;;;6.50;2.15;;;;;;;;;;4986781;28;20041;-63
2023/03/26 12:22:04;;;;;;;6.78;2.53;;;;;;;;;;4993194;28;21249;-60
2023/03/26 12:24:30;;;;;;;3.80;1.60;;;;;;;;;;5009778;28;20051;-61
2023/03/26 12:27:00;;;;;;;4.22;1.88;;;;;;;;;;5011622;28;20049;-60
2023/03/26 12:29:26;;;;;;;3.85;1.75;;;;;;;;;;5017806;28;20037;-62
2023/03/26 12:32:11;;;;;;;4.20;1.70;;;;;;;;;;5009969;28;20470;-61
2023/03/26 12:34:37;;;;;;;1.98;1.38;;;;;;;;;;5007820;28;20025;-62
2023/03/26 12:37:04;;;;;;;2.53;1.40;;;;;;;;;;5016982;28;20060;-60
2023/03/26 12:39:36;;;;;;;2.33;1.40;;;;;;;;;;5001560;28;20030;-61
2023/03/26 12:42:04;;;;;;;3.50;1.48;;;;;;;;;;5009987;28;20561;-59
2023/03/26 12:44:29;;;;;;;;;;;;;;;;;;5016715;28;20064;-58
2023/03/26 12:47:07;;;;;;;4.53;1.52;;;;;;;;;;5014168;28;19959;-58
2023/03/26 12:49:33;;;;;;;4.07;1.58;;;;;;;;;;5012032;28;20041;-59
2023/03/26 12:52:09;;;;;;;2.67;1.75;;;;;;;;;;5011877;28;20035;-60
2023/03/26 12:54:35;;;;;;;;;;;;;;;;;;5009139;28;20062;-59
2023/03/26 12:57:03;;;;;;;3.45;1.38;;;;;;;;;;5024494;28;20431;-62
2023/03/26 12:59:40;;;;;;;3.00;1.38;;;;;;;;;;5008261;28;20124;-59
2023/03/26 13:02:28;;;;;;;1.90;1.20;;;;;;;;;;5007209;28;20034;-58
2023/03/26 13:04:56;;;;;;;4.97;1.60;;;;;;;;;;5013473;28;20791;-58
2023/03/26 13:07:48;;;;;;;2.60;1.35;;;;;;;;;;5022528;28;20029;-61
2023/03/26 13:10:32;;;;;;;2.80;1.40;;;;;;;;;;4990443;28;20046;-61
2023/03/26 13:13:09;;;;;;;5.82;1.40;;;;;;;;;;5011042;28;20033;-63
2023/03/26 13:15:36;;;;;;;4.35;1.45;;;;;;;;;;5010795;28;20087;-60
2023/03/26 13:18:20;;;;;;;4.30;1.50;;;;;;;;;;5015984;28;20033;-60
2023/03/26 13:20:53;;;;;;;3.15;1.30;;;;;;;;;;5017241;28;20033;-61
2023/03/26 13:23:19;;;;;;;2.10;1.10;;;;;;;;;;5005734;28;20498;-63
2023/03/26 13:25:44;;;;;;;2.95;1.40;;;;;;;;;;5010824;28;20037;-62
2023/03/26 13:28:18;;;;;;;3.20;1.47;;;;;;;;;;5006612;28;20636;-59
2023/03/26 13:31:02;;;;;;;3.35;1.45;;;;;;;;;;5004507;28;20983;-61
2023/03/26 13:33:48;;;;;;;3.60;1.30;;;;;;;;;;5013575;28;20030;-60
2023/03/26 13:36:14;;;;;;;;;;;;;;;;;;5009454;28;20263;-61
2023/03/26 13:38:39;;;;;;;5.27;1.60;;;;;;;;;;5006938;28;20561;-61
2023/03/26 13:41:07;;;;;;;4.45;1.38;;;;;;;;;;5013460;28;20650;-62
2023/03/26 13:43:42;;;;;;;5.63;1.30;;;;;;;;;;5008453;28;20029;-59
2023/03/26 13:46:14;;;;;;;4.45;1.70;;;;;;;;;;5013681;28;20033;-62
2023/03/26 13:48:45;;;;;;;8.00;1.80;;;;;;;;;;5008407;28;20030;-62
2023/03/26 13:51:20;;;;;;;4.50;1.63;;;;;;;;;;5012196;28;20091;-64
2023/03/26 13:53:55;;;;;;;4.32;1.67;;;;;;;;;;5011926;28;20037;-62
2023/03/26 13:56:24;;;;;;;2.38;1.27;;;;;;;;;;5008102;28;20041;-61
2023/03/26 13:58:53;;;;;;;4.90;1.77;;;;;;;;;;5005981;28;20056;-61
2023/03/26 14:01:20;;;;;;;3.80;1.20;;;;;;;;;;5006227;28;20506;-64
2023/03/26 14:03:45;;;;;;;2.80;1.42;;;;;;;;;;5005357;28;20391;-61
2023/03/26 14:06:32;;;;;;;2.60;1.30;;;;;;;;;;5009725;28;20034;-60
2023/03/26 14:09:06;;;;;;;2.42;1.40;;;;;;;;;;5003045;28;20056;-59
2023/03/26 14:11:31;;;;;;;4.35;1.70;;;;;;;;;;5005238;28;20030;-59
2023/03/26 14:14:02;;;;;;;5.20;1.90;;;;;;;;;;5011254;28;20042;-60
2023/03/26 14:16:40;;;;;;;9.30;3.60;;;;;;;;;;5005510;28;20022;-60
2023/03/26 14:19:17;;;;;;;6.10;1.77;;;;;;;;;;5006380;28;20041;-62
2023/03/26 14:21:43;;;;;;;4.03;1.35;;;;;;;;;;5011311;28;20033;-64
2023/03/26 14:24:08;;;;;;;2.77;1.33;;;;;;;;;;5006775;28;20030;-59
2023/03/26 14:26:52;;;;;;;3.13;1.27;;;;;;;;;;5012208;28;20030;-59
2023/03/26 14:29:22;;;;;;;3.90;1.50;;;;;;;;;;5011657;28;20130;-61
2023/03/26 14:31:54;;;;;;;4.25;1.30;;;;;;;;;;5005246;28;20037;-64
2023/03/26 14:34:38;;;;;;;6.85;2.30;;;;;;;;;;5010842;28;20021;-62
2023/03/26 14:37:22;;;;;;;8.73;1.80;;;;;;;;;;5009871;28;20063;-59
2023/03/26 14:39:47;;;;;;;4.40;1.40;;;;;;;;;;5007253;28;20041;-61
2023/03/26 14:42:36;;;;;;;5.15;1.70;;;;;;;;;;5010126;28;20034;-63
2023/03/26 14:45:04;;;;;;;5.25;1.60;;;;;;;;;;5006412;28;20108;-61
2023/03/26 14:47:30;;;;;;;3.45;1.40;;;;;;;;;;5004478;28;20033;-63
2023/03/26 14:50:21;;;;;;;4.72;1.58;;;;;;;;;;5010413;28;20395;-60
2023/03/26 14:52:47;;;;;;;4.07;1.52;;;;;;;;;;5003056;28;20036;-61
2023/03/26 14:55:22;;;;;;;3.95;1.52;;;;;;;;;;5004625;28;20030;-60
2023/03/26 14:57:54;;;;;;;3.80;1.88;;;;;;;;;;5010100;28;20038;-64
2023/03/26 15:00:38;;;;;;;7.75;4.35;;;;;;;;;;5005568;28;20080;-61
2023/03/26 15:03:18;;;;;;;11.93;4.88;;;;;;;;;;5003278;28;20494;-62
2023/03/26 15:06:02;;;;;;;13.90;4.57;;;;;;;;;;5007617;28;20034;-60
2023/03/26 15:08:33;;;;;;;8.63;4.05;;;;;;;;;;5004281;28;20115;-61
2023/03/26 15:11:10;;;;;;;5.68;1.80;;;;;;;;;;5009065;28;20025;-62
2023/03/26 15:13:36;;;;;;;1.58;0.98;;;;;;;;;;5011823;28;20076;-59
2023/03/26 15:16:12;;;;;;;4.05;1.20;;;;;;;;;;5005318;28;20034;-61
2023/03/26 15:18:56;;;;;;;4.80;2.10;;;;;;;;;;5007804;28;20811;-62
2023/03/26 15:21:21;;;;;;;5.20;2.30;;;;;;;;;;5005333;28;20033;-59